sensor_id;sensor_type;location;lat;lon;timestamp;pressure;altitude;pressure_sealevel;temperature;humidity
49055;BME280;35405;52.344;14.530;2022-07-25T04:46:47;100751.63;;;17.71;100.00
49055;BME280;35405;52.344;14.530;2022-07-25T04:49:12;100736.94;;;17.67;100.00
49055;BME280;35405;52.344;14.530;2022-07-25T04:51:37;100735.88;;;17.59;100.00
49055;BME280;35405;52.344;14.530;2022-07-25T04:54:03;100732.00;;;17.60;100.00
49055;BME280;35405;52.344;14.530;2022-07-25T04:56:29;100740.63;;;17.71;100.00
49055;BME280;35405;52.344;14.530;2022-07-25T04:58:54;100724.91;;;17.71;100.00
49055;BME280;35405;52.344;14.530;2022-07-25T05:01:20;100728.41;;;17.80;100.00
49055;BME280;35405;52.344;14.530;2022-07-25T05:03:46;100723.09;;;17.75;100.00
49055;BME280;35405;52.344;14.530;2022-07-25T05:06:11;100721.94;;;17.76;100.00
49055;BME280;35405;52.344;14.530;2022-07-25T05:08:36;100718.09;;;17.90;100.00
49055;BME280;35405;52.344;14.530;2022-07-25T05:11:02;100721.94;;;18.10;100.00
49055;BME280;35405;52.344;14.530;2022-07-25T05:13:27;100721.84;;;18.06;100.00
49055;BME280;35405;52.344;14.530;2022-07-25T05:15:52;100722.88;;;18.14;100.00
49055;BME280;35405;52.344;14.530;2022-07-25T05:18:17;100716.13;;;18.11;100.00
49055;BME280;35405;52.344;14.530;2022-07-25T05:20:43;100710.53;;;18.32;100.00
49055;BME280;35405;52.344;14.530;2022-07-25T05:23:08;100709.25;;;18.54;100.00
49055;BME280;35405;52.344;14.530;2022-07-25T05:25:33;100706.72;;;18.37;100.00
49055;BME280;35405;52.344;14.530;2022-07-25T05:27:59;100711.53;;;18.40;100.00
49055;BME280;35405;52.344;14.530;2022-07-25T05:30:24;100710.75;;;18.51;100.00
49055;BME280;35405;52.344;14.530;2022-07-25T05:32:49;100702.47;;;18.64;100.00
49055;BME280;35405;52.344;14.530;2022-07-25T05:35:15;100704.19;;;18.68;100.00
49055;BME280;35405;52.344;14.530;2022-07-25T05:37:40;100701.47;;;18.81;100.00
49055;BME280;35405;52.344;14.530;2022-07-25T05:40:06;100697.06;;;18.92;100.00
49055;BME280;35405;52.344;14.530;2022-07-25T05:42:31;100692.25;;;18.89;100.00
49055;BME280;35405;52.344;14.530;2022-07-25T05:44:57;100695.47;;;18.91;100.00
49055;BME280;35405;52.344;14.530;2022-07-25T05:47:22;100697.72;;;19.13;100.00
49055;BME280;35405;52.344;14.530;2022-07-25T05:49:47;100689.78;;;19.40;100.00
49055;BME280;35405;52.344;14.530;2022-07-25T05:52:13;100683.72;;;19.62;100.00
49055;BME280;35405;52.344;14.530;2022-07-25T05:54:39;100687.63;;;19.61;100.00
49055;BME280;35405;52.344;14.530;2022-07-25T05:57:05;100681.13;;;19.54;100.00
49055;BME280;35405;52.344;14.530;2022-07-25T05:59:30;100679.34;;;19.74;100.00
49055;BME280;35405;52.344;14.530;2022-07-25T06:01:55;100674.97;;;19.88;100.00
49055;BME280;35405;52.344;14.530;2022-07-25T06:04:20;100675.53;;;20.10;100.00
49055;BME280;35405;52.344;14.530;2022-07-25T06:06:46;100671.97;;;20.25;100.00
49055;BME280;35405;52.344;14.530;2022-07-25T06:09:20;100660.88;;;20.41;100.00
49055;BME280;35405;52.344;14.530;2022-07-25T06:11:46;100658.13;;;20.57;100.00
49055;BME280;35405;52.344;14.530;2022-07-25T06:14:11;100657.91;;;20.66;100.00
49055;BME280;35405;52.344;14.530;2022-07-25T06:16:36;100665.16;;;20.70;100.00
49055;BME280;35405;52.344;14.530;2022-07-25T06:19:02;100656.53;;;20.75;100.00
49055;BME280;35405;52.344;14.530;2022-07-25T06:21:27;100646.81;;;20.82;100.00
49055;BME280;35405;52.344;14.530;2022-07-25T06:23:52;100645.72;;;21.06;100.00
49055;BME280;35405;52.344;14.530;2022-07-25T06:26:18;100645.00;;;21.28;100.00
49055;BME280;35405;52.344;14.530;2022-07-25T06:28:43;100641.22;;;21.56;100.00
49055;BME280;35405;52.344;14.530;2022-07-25T06:31:08;100636.53;;;21.60;100.00
49055;BME280;35405;52.344;14.530;2022-07-25T06:33:34;100642.94;;;21.64;100.00
49055;BME280;35405;52.344;14.530;2022-07-25T06:35:59;100639.72;;;21.81;100.00
49055;BME280;35405;52.344;14.530;2022-07-25T06:38:24;100637.84;;;21.89;100.00
49055;BME280;35405;52.344;14.530;2022-07-25T06:40:50;100630.03;;;21.95;100.00
49055;BME280;35405;52.344;14.530;2022-07-25T06:43:15;100629.03;;;22.06;100.00
49055;BME280;35405;52.344;14.530;2022-07-25T06:45:40;100637.97;;;22.19;99.37
49055;BME280;35405;52.344;14.530;2022-07-25T06:48:10;100625.19;;;22.37;99.55
49055;BME280;35405;52.344;14.530;2022-07-25T06:50:36;100623.06;;;22.54;98.37
49055;BME280;35405;52.344;14.530;2022-07-25T06:53:01;100626.75;;;22.65;96.91
49055;BME280;35405;52.344;14.530;2022-07-25T06:55:26;100619.88;;;22.82;95.59
49055;BME280;35405;52.344;14.530;2022-07-25T06:57:52;100618.63;;;23.06;95.84
49055;BME280;35405;52.344;14.530;2022-07-25T07:00:17;100613.69;;;23.26;91.78
49055;BME280;35405;52.344;14.530;2022-07-25T07:02:46;100614.06;;;23.24;91.86
49055;BME280;35405;52.344;14.530;2022-07-25T07:05:11;100613.75;;;23.33;90.96
49055;BME280;35405;52.344;14.530;2022-07-25T07:07:37;100610.38;;;23.50;90.47
49055;BME280;35405;52.344;14.530;2022-07-25T07:10:02;100609.69;;;23.64;90.94
49055;BME280;35405;52.344;14.530;2022-07-25T07:12:27;100602.75;;;23.81;89.50
49055;BME280;35405;52.344;14.530;2022-07-25T07:14:53;100602.03;;;23.91;89.14
49055;BME280;35405;52.344;14.530;2022-07-25T07:17:21;100598.63;;;24.12;86.20
49055;BME280;35405;52.344;14.530;2022-07-25T07:19:46;100592.69;;;24.14;85.29
49055;BME280;35405;52.344;14.530;2022-07-25T07:22:12;100586.81;;;24.26;86.14
49055;BME280;35405;52.344;14.530;2022-07-25T07:24:37;100582.13;;;24.41;84.43
49055;BME280;35405;52.344;14.530;2022-07-25T07:27:02;100583.81;;;24.49;83.86
49055;BME280;35405;52.344;14.530;2022-07-25T07:29:28;100576.72;;;24.62;84.30
49055;BME280;35405;52.344;14.530;2022-07-25T07:31:53;100577.22;;;24.82;82.61
49055;BME280;35405;52.344;14.530;2022-07-25T07:34:18;100576.06;;;25.01;80.49
49055;BME280;35405;52.344;14.530;2022-07-25T07:36:44;100579.72;;;25.20;78.84
49055;BME280;35405;52.344;14.530;2022-07-25T07:39:09;100569.00;;;25.32;79.88
49055;BME280;35405;52.344;14.530;2022-07-25T07:41:35;100573.41;;;25.48;80.00
49055;BME280;35405;52.344;14.530;2022-07-25T07:44:00;100567.47;;;25.49;75.93
49055;BME280;35405;52.344;14.530;2022-07-25T07:46:25;100575.44;;;25.54;76.94
49055;BME280;35405;52.344;14.530;2022-07-25T07:48:50;100575.03;;;25.74;75.50
49055;BME280;35405;52.344;14.530;2022-07-25T07:51:16;100567.44;;;25.78;72.82
49055;BME280;35405;52.344;14.530;2022-07-25T07:53:41;100559.94;;;25.82;74.08
49055;BME280;35405;52.344;14.530;2022-07-25T07:56:25;100559.13;;;25.96;72.32
49055;BME280;35405;52.344;14.530;2022-07-25T07:58:50;100571.47;;;26.09;72.92
49055;BME280;35405;52.344;14.530;2022-07-25T08:01:15;100571.81;;;26.36;70.83
49055;BME280;35405;52.344;14.530;2022-07-25T08:03:40;100554.25;;;26.54;68.93
49055;BME280;35405;52.344;14.530;2022-07-25T08:06:06;100564.59;;;26.60;68.23
49055;BME280;35405;52.344;14.530;2022-07-25T08:08:31;100554.22;;;26.61;66.06
49055;BME280;35405;52.344;14.530;2022-07-25T08:10:57;100549.03;;;26.59;65.59
49055;BME280;35405;52.344;14.530;2022-07-25T08:13:23;100554.97;;;26.68;65.36
49055;BME280;35405;52.344;14.530;2022-07-25T08:15:49;100543.75;;;26.79;65.96
49055;BME280;35405;52.344;14.530;2022-07-25T08:18:15;100548.06;;;26.95;64.06
49055;BME280;35405;52.344;14.530;2022-07-25T08:20:40;100546.88;;;26.92;65.50
49055;BME280;35405;52.344;14.530;2022-07-25T08:23:06;100541.22;;;27.06;65.21
49055;BME280;35405;52.344;14.530;2022-07-25T08:25:31;100538.81;;;27.16;63.99
49055;BME280;35405;52.344;14.530;2022-07-25T08:27:57;100533.63;;;27.14;64.08
49055;BME280;35405;52.344;14.530;2022-07-25T08:30:22;100525.94;;;27.32;62.70
49055;BME280;35405;52.344;14.530;2022-07-25T08:32:55;100531.38;;;27.50;63.33
49055;BME280;35405;52.344;14.530;2022-07-25T08:35:21;100532.06;;;27.65;60.48
49055;BME280;35405;52.344;14.530;2022-07-25T08:37:47;100528.38;;;27.75;60.57
49055;BME280;35405;52.344;14.530;2022-07-25T08:40:13;100531.50;;;27.85;59.50
49055;BME280;35405;52.344;14.530;2022-07-25T08:42:38;100522.19;;;27.98;59.12
49055;BME280;35405;52.344;14.530;2022-07-25T08:45:04;100523.69;;;28.07;56.83
49055;BME280;35405;52.344;14.530;2022-07-25T08:47:30;100526.09;;;28.08;56.62
49055;BME280;35405;52.344;14.530;2022-07-25T08:49:56;100533.22;;;28.13;56.84
49055;BME280;35405;52.344;14.530;2022-07-25T08:52:22;100533.44;;;28.29;55.82
49055;BME280;35405;52.344;14.530;2022-07-25T08:54:47;100524.28;;;28.29;54.50
49055;BME280;35405;52.344;14.530;2022-07-25T08:57:13;100513.72;;;28.40;54.96
49055;BME280;35405;52.344;14.530;2022-07-25T08:59:42;100516.66;;;28.63;54.85
49055;BME280;35405;52.344;14.530;2022-07-25T09:02:08;100506.72;;;28.89;53.78
49055;BME280;35405;52.344;14.530;2022-07-25T09:04:36;100503.03;;;28.96;52.00
49055;BME280;35405;52.344;14.530;2022-07-25T09:07:02;100503.06;;;28.92;51.84
49055;BME280;35405;52.344;14.530;2022-07-25T09:09:32;100505.41;;;28.98;52.70
49055;BME280;35405;52.344;14.530;2022-07-25T09:11:58;100496.09;;;29.08;52.45
49055;BME280;35405;52.344;14.530;2022-07-25T09:14:23;100497.75;;;29.29;51.00
49055;BME280;35405;52.344;14.530;2022-07-25T09:16:48;100499.16;;;29.40;51.11
49055;BME280;35405;52.344;14.530;2022-07-25T09:19:21;100497.59;;;29.63;49.29
49055;BME280;35405;52.344;14.530;2022-07-25T09:22:00;100492.97;;;29.53;49.84
49055;BME280;35405;52.344;14.530;2022-07-25T09:24:25;100490.22;;;29.49;50.05
49055;BME280;35405;52.344;14.530;2022-07-25T09:26:52;100489.44;;;29.49;50.47
49055;BME280;35405;52.344;14.530;2022-07-25T09:29:18;100484.97;;;29.51;49.91
49055;BME280;35405;52.344;14.530;2022-07-25T09:31:44;100484.06;;;29.58;50.99
49055;BME280;35405;52.344;14.530;2022-07-25T09:34:10;100482.13;;;29.55;50.83
49055;BME280;35405;52.344;14.530;2022-07-25T09:36:36;100474.84;;;29.57;51.51
49055;BME280;35405;52.344;14.530;2022-07-25T09:39:03;100470.00;;;29.85;52.12
49055;BME280;35405;52.344;14.530;2022-07-25T09:41:37;100468.25;;;30.11;50.63
49055;BME280;35405;52.344;14.530;2022-07-25T09:44:02;100461.91;;;30.30;48.83
49055;BME280;35405;52.344;14.530;2022-07-25T09:46:31;100458.78;;;30.05;48.55
49055;BME280;35405;52.344;14.530;2022-07-25T09:48:57;100451.81;;;30.13;48.63
49055;BME280;35405;52.344;14.530;2022-07-25T09:51:23;100455.06;;;30.12;47.67
49055;BME280;35405;52.344;14.530;2022-07-25T09:53:49;100451.72;;;30.17;47.64
49055;BME280;35405;52.344;14.530;2022-07-25T09:56:14;100446.00;;;30.24;47.05
49055;BME280;35405;52.344;14.530;2022-07-25T09:58:39;100439.75;;;30.36;47.22
49055;BME280;35405;52.344;14.530;2022-07-25T10:01:05;100441.44;;;30.50;46.23
49055;BME280;35405;52.344;14.530;2022-07-25T10:08:46;100433.19;;;30.59;45.78
49055;BME280;35405;52.344;14.530;2022-07-25T10:11:22;100427.78;;;30.68;45.67
49055;BME280;35405;52.344;14.530;2022-07-25T10:13:48;100411.09;;;30.81;45.86
49055;BME280;35405;52.344;14.530;2022-07-25T10:16:17;100404.84;;;30.90;44.10
49055;BME280;35405;52.344;14.530;2022-07-25T10:18:47;100402.66;;;30.97;44.83
49055;BME280;35405;52.344;14.530;2022-07-25T10:21:13;100398.97;;;31.17;44.75
49055;BME280;35405;52.344;14.530;2022-07-25T10:23:38;100401.75;;;31.33;42.79
49055;BME280;35405;52.344;14.530;2022-07-25T10:28:40;100384.94;;;31.62;41.20
49055;BME280;35405;52.344;14.530;2022-07-25T10:33:52;100382.69;;;31.70;42.68
49055;BME280;35405;52.344;14.530;2022-07-25T10:36:18;100378.31;;;31.69;41.66
49055;BME280;35405;52.344;14.530;2022-07-25T10:38:44;100376.19;;;31.73;42.23
49055;BME280;35405;52.344;14.530;2022-07-25T10:41:14;100375.28;;;31.76;42.49
49055;BME280;35405;52.344;14.530;2022-07-25T10:43:39;100370.44;;;31.93;41.50
49055;BME280;35405;52.344;14.530;2022-07-25T10:46:16;100360.16;;;31.86;41.32
49055;BME280;35405;52.344;14.530;2022-07-25T10:48:42;100362.97;;;31.86;41.76
49055;BME280;35405;52.344;14.530;2022-07-25T10:51:11;100351.94;;;31.92;42.04
49055;BME280;35405;52.344;14.530;2022-07-25T10:56:21;100353.91;;;32.08;39.77
49055;BME280;35405;52.344;14.530;2022-07-25T10:58:48;100353.31;;;32.00;39.14
49055;BME280;35405;52.344;14.530;2022-07-25T11:01:18;100339.59;;;31.90;39.78
49055;BME280;35405;52.344;14.530;2022-07-25T11:03:43;100347.56;;;31.91;40.62
49055;BME280;35405;52.344;14.530;2022-07-25T11:06:10;100331.16;;;32.02;40.29
49055;BME280;35405;52.344;14.530;2022-07-25T11:08:35;100327.69;;;32.11;40.32
49055;BME280;35405;52.344;14.530;2022-07-25T11:11:00;100326.91;;;32.23;40.03
49055;BME280;35405;52.344;14.530;2022-07-25T11:13:26;100318.91;;;32.22;39.06
49055;BME280;35405;52.344;14.530;2022-07-25T11:15:55;100325.66;;;32.24;39.53
49055;BME280;35405;52.344;14.530;2022-07-25T11:18:29;100311.81;;;32.30;39.78
49055;BME280;35405;52.344;14.530;2022-07-25T11:20:58;100306.75;;;32.38;38.97
49055;BME280;35405;52.344;14.530;2022-07-25T11:23:24;100309.44;;;32.16;38.90
49055;BME280;35405;52.344;14.530;2022-07-25T11:25:49;100301.34;;;32.30;39.75
49055;BME280;35405;52.344;14.530;2022-07-25T11:28:15;100289.63;;;32.58;38.44
49055;BME280;35405;52.344;14.530;2022-07-25T11:30:40;100290.19;;;32.65;38.20
49055;BME280;35405;52.344;14.530;2022-07-25T11:33:05;100295.22;;;32.70;37.62
49055;BME280;35405;52.344;14.530;2022-07-25T11:35:31;100281.06;;;32.74;38.23
49055;BME280;35405;52.344;14.530;2022-07-25T11:38:00;100281.22;;;32.92;38.41
49055;BME280;35405;52.344;14.530;2022-07-25T11:40:27;100284.03;;;33.05;38.37
49055;BME280;35405;52.344;14.530;2022-07-25T11:42:53;100271.31;;;33.00;36.00
49055;BME280;35405;52.344;14.530;2022-07-25T11:45:22;100261.03;;;32.94;36.91
49055;BME280;35405;52.344;14.530;2022-07-25T11:48:02;100256.09;;;32.98;37.03
49055;BME280;35405;52.344;14.530;2022-07-25T11:50:28;100259.50;;;33.15;37.30
49055;BME280;35405;52.344;14.530;2022-07-25T11:52:57;100254.41;;;33.22;37.58
49055;BME280;35405;52.344;14.530;2022-07-25T11:55:26;100248.63;;;33.04;37.22
49055;BME280;35405;52.344;14.530;2022-07-25T11:57:56;100244.84;;;32.85;37.28
49055;BME280;35405;52.344;14.530;2022-07-25T12:00:21;100231.19;;;32.49;38.55
49055;BME280;35405;52.344;14.530;2022-07-25T12:02:47;100243.91;;;32.88;37.56
49055;BME280;35405;52.344;14.530;2022-07-25T12:05:15;100243.06;;;33.13;36.41
49055;BME280;35405;52.344;14.530;2022-07-25T12:07:45;100234.63;;;33.13;36.81
49055;BME280;35405;52.344;14.530;2022-07-25T12:12:43;100220.97;;;33.56;36.32
49055;BME280;35405;52.344;14.530;2022-07-25T12:15:09;100221.59;;;33.82;35.03
49055;BME280;35405;52.344;14.530;2022-07-25T12:17:36;100215.66;;;33.58;35.38
49055;BME280;35405;52.344;14.530;2022-07-25T12:20:01;100222.72;;;32.96;36.18
49055;BME280;35405;52.344;14.530;2022-07-25T12:22:26;100219.53;;;33.07;35.36
49055;BME280;35405;52.344;14.530;2022-07-25T12:24:52;100201.19;;;33.24;35.23
49055;BME280;35405;52.344;14.530;2022-07-25T12:27:20;100204.75;;;33.47;34.95
49055;BME280;35405;52.344;14.530;2022-07-25T12:29:45;100195.97;;;33.67;35.04
49055;BME280;35405;52.344;14.530;2022-07-25T12:32:11;100205.44;;;33.82;34.14
49055;BME280;35405;52.344;14.530;2022-07-25T12:34:36;100199.19;;;33.97;34.80
49055;BME280;35405;52.344;14.530;2022-07-25T12:37:01;100189.44;;;33.79;33.74
49055;BME280;35405;52.344;14.530;2022-07-25T12:39:26;100181.78;;;33.89;34.75
49055;BME280;35405;52.344;14.530;2022-07-25T12:41:52;100181.25;;;34.12;33.97
49055;BME280;35405;52.344;14.530;2022-07-25T12:44:17;100183.16;;;34.25;33.33
49055;BME280;35405;52.344;14.530;2022-07-25T12:46:42;100178.00;;;34.32;32.48
49055;BME280;35405;52.344;14.530;2022-07-25T12:49:07;100166.00;;;34.01;32.74
49055;BME280;35405;52.344;14.530;2022-07-25T12:51:33;100164.66;;;33.21;33.61
49055;BME280;35405;52.344;14.530;2022-07-25T12:53:58;100167.06;;;32.88;35.16
49055;BME280;35405;52.344;14.530;2022-07-25T12:56:23;100158.44;;;33.26;34.48
49055;BME280;35405;52.344;14.530;2022-07-25T12:58:48;100153.91;;;34.00;32.55
49055;BME280;35405;52.344;14.530;2022-07-25T13:01:15;100146.94;;;33.74;33.60
49055;BME280;35405;52.344;14.530;2022-07-25T13:03:40;100149.22;;;33.97;33.60
49055;BME280;35405;52.344;14.530;2022-07-25T13:06:05;100155.22;;;34.27;32.58
49055;BME280;35405;52.344;14.530;2022-07-25T13:08:31;100147.44;;;34.49;32.83
49055;BME280;35405;52.344;14.530;2022-07-25T13:10:56;100142.09;;;34.51;32.50
49055;BME280;35405;52.344;14.530;2022-07-25T13:13:22;100149.94;;;34.47;31.64
49055;BME280;35405;52.344;14.530;2022-07-25T13:15:47;100140.50;;;34.41;31.49
49055;BME280;35405;52.344;14.530;2022-07-25T13:18:12;100134.84;;;34.23;31.98
49055;BME280;35405;52.344;14.530;2022-07-25T13:20:37;100125.91;;;33.65;32.71
49055;BME280;35405;52.344;14.530;2022-07-25T13:23:03;100121.38;;;33.37;33.52
49055;BME280;35405;52.344;14.530;2022-07-25T13:25:28;100115.63;;;33.50;33.95
49055;BME280;35405;52.344;14.530;2022-07-25T13:27:53;100117.22;;;33.91;33.79
49055;BME280;35405;52.344;14.530;2022-07-25T13:30:19;100103.16;;;34.09;32.90
49055;BME280;35405;52.344;14.530;2022-07-25T13:32:44;100113.53;;;34.31;32.35
49055;BME280;35405;52.344;14.530;2022-07-25T13:35:09;100105.50;;;34.29;31.63
49055;BME280;35405;52.344;14.530;2022-07-25T13:37:35;100104.13;;;34.43;31.81
49055;BME280;35405;52.344;14.530;2022-07-25T13:40:00;100106.03;;;34.55;30.63
49055;BME280;35405;52.344;14.530;2022-07-25T13:42:25;100093.75;;;34.49;30.41
49055;BME280;35405;52.344;14.530;2022-07-25T13:44:51;100090.00;;;34.43;30.24
49055;BME280;35405;52.344;14.530;2022-07-25T13:47:16;100081.53;;;34.43;31.17
49055;BME280;35405;52.344;14.530;2022-07-25T13:49:41;100085.00;;;34.56;31.43
49055;BME280;35405;52.344;14.530;2022-07-25T13:52:07;100084.84;;;34.60;30.76
49055;BME280;35405;52.344;14.530;2022-07-25T13:54:32;100075.72;;;34.28;31.26
49055;BME280;35405;52.344;14.530;2022-07-25T13:56:58;100077.44;;;34.35;31.45
49055;BME280;35405;52.344;14.530;2022-07-25T13:59:23;100084.66;;;34.73;31.59
49055;BME280;35405;52.344;14.530;2022-07-25T14:01:48;100079.16;;;34.88;30.96
49055;BME280;35405;52.344;14.530;2022-07-25T14:04:14;100089.06;;;34.65;30.38
49055;BME280;35405;52.344;14.530;2022-07-25T14:06:39;100076.84;;;34.58;30.40
49055;BME280;35405;52.344;14.530;2022-07-25T14:09:05;100060.22;;;34.61;30.93
49055;BME280;35405;52.344;14.530;2022-07-25T14:11:30;100062.09;;;34.64;30.55
49055;BME280;35405;52.344;14.530;2022-07-25T14:13:56;100065.78;;;34.88;30.90
49055;BME280;35405;52.344;14.530;2022-07-25T14:16:21;100067.19;;;35.11;31.16
49055;BME280;35405;52.344;14.530;2022-07-25T14:18:46;100050.69;;;35.10;30.76
49055;BME280;35405;52.344;14.530;2022-07-25T14:21:12;100046.22;;;35.27;30.41
49055;BME280;35405;52.344;14.530;2022-07-25T14:23:37;100034.00;;;35.21;29.72
49055;BME280;35405;52.344;14.530;2022-07-25T14:26:02;100038.28;;;34.98;29.86
49055;BME280;35405;52.344;14.530;2022-07-25T14:28:28;100038.69;;;34.45;30.83
49055;BME280;35405;52.344;14.530;2022-07-25T14:30:53;100043.13;;;34.18;31.23
49055;BME280;35405;52.344;14.530;2022-07-25T14:33:19;100039.94;;;34.62;31.10
49055;BME280;35405;52.344;14.530;2022-07-25T14:35:44;100031.84;;;35.07;29.73
49055;BME280;35405;52.344;14.530;2022-07-25T14:38:09;100027.75;;;34.98;30.66
49055;BME280;35405;52.344;14.530;2022-07-25T14:40:35;100025.88;;;34.95;30.64
49055;BME280;35405;52.344;14.530;2022-07-25T14:43:01;100031.13;;;34.78;30.69
49055;BME280;35405;52.344;14.530;2022-07-25T14:45:26;100020.78;;;34.48;30.81
49055;BME280;35405;52.344;14.530;2022-07-25T14:47:51;100007.50;;;34.21;30.94
49055;BME280;35405;52.344;14.530;2022-07-25T14:50:17;100008.31;;;34.12;31.40
49055;BME280;35405;52.344;14.530;2022-07-25T14:52:43;100009.06;;;34.31;30.82
49055;BME280;35405;52.344;14.530;2022-07-25T14:55:08;100015.44;;;34.68;30.80
49055;BME280;35405;52.344;14.530;2022-07-25T14:57:33;100010.56;;;34.78;30.68
49055;BME280;35405;52.344;14.530;2022-07-25T14:59:59;100001.63;;;34.79;30.73
49055;BME280;35405;52.344;14.530;2022-07-25T15:02:26;100001.66;;;34.70;31.03
49055;BME280;35405;52.344;14.530;2022-07-25T15:04:52;99995.84;;;34.65;31.10
49055;BME280;35405;52.344;14.530;2022-07-25T15:07:17;99991.31;;;34.49;31.08
49055;BME280;35405;52.344;14.530;2022-07-25T15:09:42;99984.41;;;34.41;30.96
49055;BME280;35405;52.344;14.530;2022-07-25T15:12:08;99992.41;;;34.51;31.36
49055;BME280;35405;52.344;14.530;2022-07-25T15:14:33;99975.31;;;34.55;31.13
49055;BME280;35405;52.344;14.530;2022-07-25T15:16:59;99971.03;;;34.69;31.11
49055;BME280;35405;52.344;14.530;2022-07-25T15:19:24;99967.38;;;34.77;29.83
49055;BME280;35405;52.344;14.530;2022-07-25T15:21:50;99958.06;;;34.95;29.97
49055;BME280;35405;52.344;14.530;2022-07-25T15:24:15;99957.72;;;35.12;30.40
49055;BME280;35405;52.344;14.530;2022-07-25T15:26:40;99959.63;;;35.06;30.06
49055;BME280;35405;52.344;14.530;2022-07-25T15:29:06;99963.81;;;34.68;30.44
49055;BME280;35405;52.344;14.530;2022-07-25T15:31:33;99959.75;;;34.50;31.03
49055;BME280;35405;52.344;14.530;2022-07-25T15:33:58;99958.06;;;34.34;31.03
49055;BME280;35405;52.344;14.530;2022-07-25T15:36:23;99956.06;;;33.98;31.00
49055;BME280;35405;52.344;14.530;2022-07-25T15:38:49;99957.63;;;33.90;31.52
49055;BME280;35405;52.344;14.530;2022-07-25T15:41:14;99945.09;;;33.82;31.55
49055;BME280;35405;52.344;14.530;2022-07-25T15:43:39;99937.72;;;33.84;31.35
49055;BME280;35405;52.344;14.530;2022-07-25T15:46:05;99929.13;;;33.79;31.62
49055;BME280;35405;52.344;14.530;2022-07-25T15:48:34;99931.47;;;33.71;31.16
49055;BME280;35405;52.344;14.530;2022-07-25T15:50:59;99924.25;;;33.61;31.94
49055;BME280;35405;52.344;14.530;2022-07-25T15:53:24;99933.13;;;33.50;31.98
49055;BME280;35405;52.344;14.530;2022-07-25T15:55:50;99921.22;;;33.37;32.15
49055;BME280;35405;52.344;14.530;2022-07-25T15:58:15;99932.78;;;33.30;32.75
49055;BME280;35405;52.344;14.530;2022-07-25T16:00:41;99915.88;;;33.30;33.11
49055;BME280;35405;52.344;14.530;2022-07-25T16:03:07;99918.25;;;33.31;32.77
49055;BME280;35405;52.344;14.530;2022-07-25T16:05:32;99903.31;;;33.21;33.03
49055;BME280;35405;52.344;14.530;2022-07-25T16:07:58;99908.31;;;33.08;34.07
49055;BME280;35405;52.344;14.530;2022-07-25T16:10:25;99899.84;;;32.99;33.95
49055;BME280;35405;52.344;14.530;2022-07-25T16:12:50;99897.16;;;32.95;33.89
49055;BME280;35405;52.344;14.530;2022-07-25T16:15:16;99896.00;;;32.84;34.20
49055;BME280;35405;52.344;14.530;2022-07-25T16:17:41;99893.66;;;32.91;34.31
49055;BME280;35405;52.344;14.530;2022-07-25T16:20:06;99890.97;;;33.10;33.88
49055;BME280;35405;52.344;14.530;2022-07-25T16:22:33;99884.25;;;33.26;33.95
49055;BME280;35405;52.344;14.530;2022-07-25T16:24:59;99887.66;;;33.20;34.11
49055;BME280;35405;52.344;14.530;2022-07-25T16:27:27;99889.38;;;33.09;34.10
49055;BME280;35405;52.344;14.530;2022-07-25T16:29:52;99882.25;;;32.86;34.74
49055;BME280;35405;52.344;14.530;2022-07-25T16:32:18;99888.25;;;32.56;35.46
49055;BME280;35405;52.344;14.530;2022-07-25T16:34:43;99878.75;;;32.41;35.66
49055;BME280;35405;52.344;14.530;2022-07-25T16:37:08;99872.56;;;32.46;35.47
49055;BME280;35405;52.344;14.530;2022-07-25T16:39:34;99873.19;;;32.50;35.46
49055;BME280;35405;52.344;14.530;2022-07-25T16:41:59;99868.28;;;32.42;35.56
49055;BME280;35405;52.344;14.530;2022-07-25T16:44:24;99871.34;;;32.25;36.13
49055;BME280;35405;52.344;14.530;2022-07-25T16:46:50;99871.88;;;32.11;35.99
49055;BME280;35405;52.344;14.530;2022-07-25T16:49:15;99868.09;;;32.05;36.14
49055;BME280;35405;52.344;14.530;2022-07-25T16:51:41;99862.72;;;31.98;36.54
49055;BME280;35405;52.344;14.530;2022-07-25T16:54:07;99865.13;;;31.86;36.82
49055;BME280;35405;52.344;14.530;2022-07-25T16:56:32;99860.41;;;31.83;36.53
49055;BME280;35405;52.344;14.530;2022-07-25T16:58:57;99846.03;;;31.81;36.32
49055;BME280;35405;52.344;14.530;2022-07-25T17:01:23;99849.41;;;31.76;36.74
49055;BME280;35405;52.344;14.530;2022-07-25T17:03:50;99840.78;;;31.71;36.77
49055;BME280;35405;52.344;14.530;2022-07-25T17:06:15;99840.91;;;31.67;36.95
49055;BME280;35405;52.344;14.530;2022-07-25T17:08:41;99846.81;;;31.60;36.90
49055;BME280;35405;52.344;14.530;2022-07-25T17:11:06;99843.53;;;31.61;36.93
49055;BME280;35405;52.344;14.530;2022-07-25T17:13:31;99834.44;;;31.57;36.83
49055;BME280;35405;52.344;14.530;2022-07-25T17:15:56;99837.25;;;31.57;37.04
49055;BME280;35405;52.344;14.530;2022-07-25T17:18:22;99844.78;;;31.60;36.81
49055;BME280;35405;52.344;14.530;2022-07-25T17:20:47;99840.28;;;31.63;36.81
49055;BME280;35405;52.344;14.530;2022-07-25T17:23:13;99846.19;;;31.65;36.85
49055;BME280;35405;52.344;14.530;2022-07-25T17:25:39;99840.00;;;31.70;36.77
49055;BME280;35405;52.344;14.530;2022-07-25T17:28:05;99842.50;;;31.68;36.87
49055;BME280;35405;52.344;14.530;2022-07-25T17:30:30;99839.16;;;31.60;36.76
49055;BME280;35405;52.344;14.530;2022-07-25T17:32:55;99844.72;;;31.51;37.08
49055;BME280;35405;52.344;14.530;2022-07-25T17:35:23;99845.75;;;31.45;36.94